createdAt,value
2022-08-08T00:01:08.944Z,42.13
2022-08-08T00:03:37.212Z,41.39
2022-08-08T00:06:13.205Z,40.96
2022-08-08T00:08:57.179Z,43.08
2022-08-08T00:11:25.083Z,42.86
2022-08-08T00:14:17.224Z,42.00
2022-08-08T00:16:45.298Z,41.77
2022-08-08T00:19:15.533Z,42.01
2022-08-08T00:21:45.941Z,42.86
2022-08-08T00:24:15.477Z,42.69
2022-08-08T00:26:43.367Z,42.59
2022-08-08T00:29:10.511Z,42.58
2022-08-08T00:32:21.137Z,43.61
2022-08-08T00:34:55.088Z,43.27
2022-08-08T00:37:47.642Z,42.79
2022-08-08T00:41:11.653Z,43.57
2022-08-08T00:43:40.693Z,44.14
2022-08-08T00:46:20.897Z,43.72
2022-08-08T00:49:22.742Z,42.53
2022-08-08T00:51:53.376Z,43.75
2022-08-08T00:54:43.317Z,42.91
2022-08-08T00:57:34.676Z,44.01
2022-08-08T01:00:04.841Z,43.61
2022-08-08T01:04:01.282Z,44.19
2022-08-08T01:05:59.166Z,43.82
2022-08-08T01:08:28.680Z,43.69
2022-08-08T01:11:27.458Z,43.47
2022-08-08T01:14:16.570Z,43.79
2022-08-08T01:17:03.331Z,43.79
2022-08-08T01:19:51.830Z,43.85
2022-08-08T01:22:39.188Z,44.02
2022-08-08T01:25:16.827Z,43.93
2022-08-08T01:28:00.108Z,44.39
2022-08-08T01:30:46.952Z,44.14
2022-08-08T01:33:43.102Z,44.49
2022-08-08T01:36:33.563Z,44.14
2022-08-08T01:39:05.946Z,43.95
2022-08-08T01:41:43.830Z,44.27
2022-08-08T01:44:11.716Z,43.78
2022-08-08T01:46:47.381Z,43.76
2022-08-08T01:49:22.813Z,43.01
2022-08-08T01:54:04.524Z,43.46
2022-08-08T01:55:26.313Z,43.21
2022-08-08T01:58:13.866Z,42.53
2022-08-08T02:00:48.527Z,42.70
2022-08-08T02:03:56.060Z,44.22
2022-08-08T02:06:32.778Z,43.54
2022-08-08T02:09:17.384Z,43.73
2022-08-08T02:11:58.959Z,43.51
2022-08-08T02:14:34.454Z,43.15
2022-08-08T02:17:26.901Z,43.90
2022-08-08T02:21:00.892Z,42.97
2022-08-08T02:23:18.583Z,44.44
2022-08-08T02:25:48.754Z,44.09
2022-08-08T02:28:34.685Z,44.46
2022-08-08T02:31:57.819Z,44.48
2022-08-08T02:34:07.231Z,44.44
2022-08-08T02:36:40.865Z,44.25
2022-08-08T02:39:41.251Z,44.41
2022-08-08T02:42:36.168Z,44.16
2022-08-08T02:45:18.211Z,43.78
2022-08-08T02:47:55.782Z,43.62
2022-08-08T02:50:53.061Z,44.60
2022-08-08T02:53:32.165Z,44.48
2022-08-08T02:56:09.105Z,44.71
2022-08-08T02:58:56.197Z,44.36
2022-08-08T03:01:32.698Z,43.90
2022-08-08T03:05:02.470Z,44.11
2022-08-08T03:07:58.240Z,44.08
2022-08-08T03:10:36.168Z,45.41
2022-08-08T03:15:53.355Z,45.64
2022-08-08T03:16:12.059Z,45.29
2022-08-08T03:19:07.172Z,45.37
2022-08-08T03:21:54.810Z,45.18
2022-08-08T03:24:21.787Z,44.07
2022-08-08T03:26:52.796Z,44.70
2022-08-08T03:29:27.107Z,45.43
2022-08-08T03:32:29.159Z,44.96
2022-08-08T03:34:57.976Z,44.50
2022-08-08T03:38:54.879Z,44.51
2022-08-08T03:40:28.977Z,44.84
2022-08-08T03:43:16.614Z,44.56
2022-08-08T03:46:03.125Z,45.50
2022-08-08T03:49:10.017Z,45.00
2022-08-08T03:51:19.545Z,44.34
2022-08-08T03:54:06.847Z,44.38
2022-08-08T03:56:35.848Z,45.15
2022-08-08T03:59:03.581Z,45.84
2022-08-08T04:02:15.998Z,45.37
2022-08-08T04:04:30.744Z,44.69
2022-08-08T04:07:01.415Z,44.28
2022-08-08T04:09:30.811Z,45.40
2022-08-08T04:12:17.164Z,45.87
2022-08-08T04:14:47.214Z,45.39
2022-08-08T04:17:22.439Z,45.14
2022-08-08T04:20:08.069Z,45.15
2022-08-08T04:22:36.115Z,44.95
2022-08-08T04:25:03.943Z,45.38
2022-08-08T04:28:03.007Z,44.99
2022-08-08T04:30:19.638Z,45.98
2022-08-08T04:32:50.352Z,45.02
2022-08-08T04:35:20.172Z,45.39
2022-08-08T04:37:50.383Z,45.90
2022-08-08T04:40:18.835Z,47.20
2022-08-08T04:42:57.215Z,47.30
2022-08-08T04:45:26.162Z,46.24
2022-08-08T04:47:54.428Z,46.68
2022-08-08T04:50:24.288Z,46.23
2022-08-08T04:52:58.512Z,46.46
2022-08-08T04:55:29.174Z,48.09
2022-08-08T04:58:09.504Z,49.26
2022-08-08T05:00:39.552Z,48.51
2022-08-08T05:03:12.670Z,47.99
2022-08-08T05:05:45.825Z,47.85
2022-08-08T05:08:21.660Z,49.07
2022-08-08T05:10:56.696Z,50.81
2022-08-08T05:13:26.110Z,49.43
2022-08-08T05:16:48.501Z,49.89
2022-08-08T05:18:41.211Z,49.32
2022-08-08T05:21:14.376Z,49.99
2022-08-08T05:23:45.944Z,50.37
2022-08-08T05:26:14.203Z,50.50
2022-08-08T05:28:56.288Z,50.29
2022-08-08T05:32:03.712Z,49.38
2022-08-08T05:34:30.922Z,49.62
2022-08-08T05:36:58.286Z,51.80
2022-08-08T05:39:28.573Z,51.12
2022-08-08T05:42:02.686Z,51.07
2022-08-08T05:44:31.416Z,51.55
2022-08-08T05:47:03.169Z,53.06
2022-08-08T05:49:32.421Z,50.25
2022-08-08T05:52:06.085Z,48.58
2022-08-08T05:54:49.717Z,47.97
2022-08-08T05:57:57.879Z,49.48
2022-08-08T06:00:22.934Z,49.26
2022-08-08T06:03:10.574Z,51.35
2022-08-08T06:05:51.758Z,51.85
2022-08-08T06:08:34.851Z,52.50
2022-08-08T06:11:04.272Z,52.23
2022-08-08T06:13:35.610Z,51.53
2022-08-08T06:16:04.297Z,50.88
2022-08-08T06:18:36.501Z,49.23
2022-08-08T06:21:28.397Z,48.05
2022-08-08T06:24:02.208Z,50.45
2022-08-08T06:26:38.300Z,49.54
2022-08-08T06:29:48.810Z,49.79
2022-08-08T06:32:11.365Z,50.06
2022-08-08T06:35:02.864Z,49.42
2022-08-08T06:37:37.975Z,49.41
2022-08-08T06:40:10.445Z,48.50
2022-08-08T06:42:47.120Z,48.25
2022-08-08T06:45:17.269Z,47.91
2022-08-08T06:47:52.616Z,47.74
2022-08-08T06:50:31.579Z,48.22
2022-08-08T06:53:00.856Z,47.96
2022-08-08T06:55:41.742Z,48.36
2022-08-08T06:58:10.038Z,49.36
2022-08-08T07:00:40.704Z,48.92
2022-08-08T07:03:19.493Z,48.24
2022-08-08T07:06:02.224Z,47.87
2022-08-08T07:08:32.943Z,50.52
2022-08-08T07:11:00.391Z,49.30
2022-08-08T07:13:30.866Z,49.17
2022-08-08T07:16:05.400Z,47.10
2022-08-08T07:18:57.835Z,49.78
2022-08-08T07:21:27.987Z,48.79
2022-08-08T07:24:04.405Z,47.01
2022-08-08T07:26:37.857Z,44.06
2022-08-08T07:29:08.267Z,44.99
2022-08-08T07:31:40.177Z,45.94
2022-08-08T07:34:09.658Z,45.88
2022-08-08T07:36:37.642Z,46.42
2022-08-08T07:39:22.524Z,44.71
2022-08-08T07:42:04.585Z,44.44
2022-08-08T07:44:40.754Z,43.34
2022-08-08T07:47:11.073Z,42.53
2022-08-08T07:49:41.955Z,42.27
2022-08-08T07:52:19.681Z,43.24
2022-08-08T07:54:54.191Z,41.83
2022-08-08T07:57:24.586Z,42.43
2022-08-08T07:59:57.450Z,42.18
2022-08-08T08:02:34.718Z,41.09
2022-08-08T08:05:14.406Z,42.23
2022-08-08T08:07:45.876Z,39.82
2022-08-08T08:10:14.454Z,38.03
2022-08-08T08:12:43.734Z,38.51
2022-08-08T08:15:15.773Z,38.70
2022-08-08T08:17:48.772Z,39.09
2022-08-08T08:20:18.009Z,40.33
2022-08-08T08:22:47.397Z,38.12
2022-08-08T08:25:16.993Z,38.23
2022-08-08T08:27:47.350Z,36.82
2022-08-08T08:30:14.836Z,36.33
2022-08-08T08:32:51.191Z,36.31
2022-08-08T08:35:21.363Z,36.36
2022-08-08T08:38:19.155Z,35.33
2022-08-08T08:40:48.596Z,35.47
2022-08-08T08:43:19.028Z,35.76
2022-08-08T08:45:47.788Z,34.26
2022-08-08T08:48:16.397Z,35.83
2022-08-08T08:50:52.147Z,37.63
2022-08-08T08:53:27.787Z,36.54
2022-08-08T08:56:07.912Z,36.40
2022-08-08T08:58:39.710Z,35.99
2022-08-08T09:01:10.301Z,35.49
2022-08-08T09:03:46.596Z,37.04
2022-08-08T09:06:28.606Z,36.63
2022-08-08T09:09:07.467Z,36.98
2022-08-08T09:12:01.634Z,37.81
2022-08-08T09:14:34.591Z,37.99
2022-08-08T09:17:11.523Z,36.60
2022-08-08T09:22:00.535Z,36.07
2022-08-08T09:22:29.772Z,37.62
2022-08-08T09:24:58.602Z,36.97
2022-08-08T09:27:55.873Z,39.48
2022-08-08T09:30:17.215Z,39.46
2022-08-08T09:33:13.147Z,39.92
2022-08-08T09:35:38.466Z,38.88
2022-08-08T09:38:24.365Z,38.62
2022-08-08T09:40:57.597Z,38.42
2022-08-08T09:44:04.446Z,40.15
2022-08-08T09:46:25.576Z,39.54
2022-08-08T09:49:18.475Z,40.19
2022-08-08T09:52:07.504Z,40.40
2022-08-08T09:54:44.293Z,40.67
2022-08-08T09:57:25.848Z,40.59
2022-08-08T10:00:28.712Z,39.63
2022-08-08T10:02:42.011Z,40.19
2022-08-08T10:05:19.934Z,40.38
2022-08-08T10:08:00.843Z,41.22
2022-08-08T10:10:32.820Z,39.96
2022-08-08T10:13:00.594Z,40.55
2022-08-08T10:15:42.210Z,40.50
2022-08-08T10:18:28.838Z,41.38
2022-08-08T10:21:25.344Z,41.31
2022-08-08T10:23:58.262Z,41.04
2022-08-08T10:26:57.630Z,40.92
2022-08-08T10:29:22.955Z,40.60
2022-08-08T10:32:09.543Z,42.80
2022-08-08T10:34:43.381Z,40.96
2022-08-08T10:37:13.594Z,42.62
2022-08-08T10:39:54.098Z,41.07
2022-08-08T10:42:27.367Z,40.89
2022-08-08T10:45:02.020Z,41.20
2022-08-08T10:47:42.912Z,41.48
2022-08-08T10:50:15.651Z,40.82
2022-08-08T10:52:43.294Z,41.76
2022-08-08T10:55:39.898Z,42.01
2022-08-08T10:58:06.096Z,42.79
2022-08-08T11:00:48.849Z,43.97
2022-08-08T11:03:37.067Z,45.47
2022-08-08T11:06:12.729Z,45.20
2022-08-08T11:08:53.660Z,45.48
2022-08-08T11:11:59.979Z,46.01
2022-08-08T11:14:12.312Z,47.19
2022-08-08T11:16:46.596Z,46.81
2022-08-08T11:19:15.670Z,45.91
2022-08-08T11:21:55.624Z,48.25
2022-08-08T11:24:25.525Z,47.57
2022-08-08T11:26:56.914Z,47.17
2022-08-08T11:29:41.344Z,47.16
2022-08-08T11:32:13.400Z,46.62
2022-08-08T11:35:07.757Z,47.74
2022-08-08T11:38:37.174Z,45.37
2022-08-08T11:40:22.366Z,47.06
2022-08-08T11:42:53.153Z,45.75
2022-08-08T11:45:21.658Z,46.71
2022-08-08T11:48:02.981Z,49.36
2022-08-08T11:50:32.385Z,47.76
2022-08-08T11:53:06.094Z,50.25
2022-08-08T11:55:36.466Z,48.60
2022-08-08T11:58:14.699Z,50.39
2022-08-08T12:00:43.528Z,50.28
2022-08-08T12:03:21.263Z,51.15
2022-08-08T12:05:48.792Z,50.06
2022-08-08T12:08:17.196Z,52.21
2022-08-08T12:10:51.433Z,52.80
2022-08-08T12:13:37.640Z,51.38
2022-08-08T12:16:15.716Z,52.50
2022-08-08T12:18:50.349Z,54.52
2022-08-08T12:21:25.943Z,54.34
2022-08-08T12:24:13.576Z,54.91
2022-08-08T12:26:42.035Z,54.99
2022-08-08T12:29:19.878Z,53.27
2022-08-08T12:32:09.806Z,51.83
2022-08-08T12:34:44.869Z,53.72
2022-08-08T12:37:41.065Z,52.93
2022-08-08T12:40:24.202Z,53.19
2022-08-08T12:42:52.742Z,55.16
2022-08-08T12:45:59.969Z,53.31
2022-08-08T12:48:35.543Z,54.02
2022-08-08T12:51:05.026Z,52.61
2022-08-08T12:53:41.987Z,50.65
2022-08-08T12:56:19.012Z,51.81
2022-08-08T12:58:51.504Z,51.18
2022-08-08T13:01:24.585Z,50.93
2022-08-08T13:04:12.494Z,51.75
2022-08-08T13:07:06.135Z,52.35
2022-08-08T13:09:57.614Z,52.98
2022-08-08T13:12:29.111Z,52.53
2022-08-08T13:14:57.333Z,52.88
2022-08-08T13:18:07.873Z,51.48
2022-08-08T13:20:18.311Z,49.55
2022-08-08T13:22:45.801Z,48.77
2022-08-08T13:25:16.705Z,49.17
2022-08-08T13:27:44.302Z,49.04
2022-08-08T13:30:20.861Z,50.11
2022-08-08T13:32:57.356Z,50.77
2022-08-08T13:35:29.661Z,49.06
2022-08-08T13:38:08.502Z,49.77
2022-08-08T13:40:40.991Z,49.37
2022-08-08T13:43:08.976Z,50.08
2022-08-08T13:45:36.992Z,49.36
2022-08-08T13:48:05.814Z,48.78
2022-08-08T13:50:49.114Z,48.08
2022-08-08T13:53:33.924Z,47.30
2022-08-08T13:56:11.743Z,46.59
2022-08-08T13:58:57.192Z,46.02
2022-08-08T14:01:41.656Z,45.72
2022-08-08T14:04:21.544Z,47.06
2022-08-08T14:06:48.935Z,46.04
2022-08-08T14:09:24.307Z,46.66
2022-08-08T14:11:58.888Z,47.64
2022-08-08T14:14:39.557Z,46.38
2022-08-08T14:17:07.554Z,45.99
2022-08-08T14:19:57.755Z,45.83
2022-08-08T14:22:28.027Z,46.04
2022-08-08T14:25:00.628Z,47.60
2022-08-08T14:27:29.301Z,48.61
2022-08-08T14:30:04.380Z,48.40
2022-08-08T14:32:53.304Z,47.34
2022-08-08T14:35:21.924Z,49.30
2022-08-08T14:37:59.826Z,48.63
2022-08-08T14:40:29.729Z,49.61
2022-08-08T14:43:01.373Z,51.46
2022-08-08T14:46:01.418Z,52.72
2022-08-08T14:48:27.248Z,52.24
2022-08-08T14:51:03.747Z,51.75
2022-08-08T14:53:37.159Z,52.52
2022-08-08T14:56:04.709Z,53.42
2022-08-08T14:58:33.565Z,52.28
2022-08-08T15:01:01.189Z,52.41
2022-08-08T15:03:44.852Z,51.43
2022-08-08T15:06:20.627Z,51.52
2022-08-08T15:08:54.845Z,51.19
2022-08-08T15:11:22.694Z,50.31
2022-08-08T15:14:03.213Z,51.52
2022-08-08T15:16:34.538Z,53.04
2022-08-08T15:19:03.387Z,53.85
2022-08-08T15:21:30.739Z,52.77
2022-08-08T15:23:58.418Z,54.04
2022-08-08T15:26:28.948Z,53.00
2022-08-08T15:28:57.201Z,53.15
2022-08-08T15:31:25.959Z,52.69
2022-08-08T15:34:30.105Z,53.36
2022-08-08T15:36:59.598Z,53.22
2022-08-08T15:39:37.702Z,52.21
2022-08-08T15:42:10.143Z,53.75
2022-08-08T15:44:38.635Z,52.47
2022-08-08T15:47:15.212Z,52.07
2022-08-08T15:49:44.394Z,52.32
2022-08-08T15:52:15.181Z,52.52
2022-08-08T15:54:42.910Z,53.26
2022-08-08T15:57:15.425Z,52.93
2022-08-08T16:00:05.315Z,53.89
2022-08-08T16:02:44.139Z,54.25
2022-08-08T16:05:19.373Z,53.91
2022-08-08T16:07:51.280Z,54.22
2022-08-08T16:13:09.722Z,54.61
2022-08-08T16:13:29.399Z,53.40
2022-08-08T16:15:58.559Z,52.80
2022-08-08T16:18:32.331Z,51.77
2022-08-08T16:21:01.264Z,51.83
2022-08-08T16:23:31.888Z,51.59
2022-08-08T16:26:05.018Z,51.01
2022-08-08T16:28:41.351Z,51.10
2022-08-08T16:31:09.213Z,51.39
2022-08-08T16:33:38.741Z,51.06
2022-08-08T16:36:09.717Z,50.54
2022-08-08T16:38:44.449Z,49.41
2022-08-08T16:41:20.165Z,50.26
2022-08-08T16:43:51.323Z,50.45
2022-08-08T16:46:43.448Z,49.07
2022-08-08T16:49:07.927Z,49.02
2022-08-08T16:55:07.106Z,47.72
2022-08-08T16:55:20.746Z,47.93
2022-08-08T16:57:27.813Z,48.46
2022-08-08T17:00:06.512Z,49.59
2022-08-08T17:02:39.302Z,48.37
2022-08-08T17:05:08.733Z,48.80
2022-08-08T17:07:40.838Z,49.46
2022-08-08T17:10:09.588Z,49.74
2022-08-08T17:12:37.495Z,50.49
2022-08-08T17:15:18.153Z,50.22
2022-08-08T17:18:03.088Z,51.05
2022-08-08T17:20:32.605Z,50.22
2022-08-08T17:23:18.252Z,50.87
2022-08-08T17:25:52.587Z,53.53
2022-08-08T17:28:30.742Z,53.00
2022-08-08T17:31:45.655Z,53.85
2022-08-08T17:34:35.564Z,54.68
2022-08-08T17:36:55.499Z,53.90
2022-08-08T17:40:05.106Z,54.88
2022-08-08T17:42:15.817Z,54.33
2022-08-08T17:44:45.555Z,55.41
2022-08-08T17:47:23.201Z,56.76
2022-08-08T17:49:51.725Z,57.29
2022-08-08T17:52:20.095Z,57.17
2022-08-08T17:54:51.933Z,56.57
2022-08-08T17:57:23.911Z,59.24
2022-08-08T17:59:51.837Z,58.19
2022-08-08T18:02:28.771Z,56.46
2022-08-08T18:05:04.328Z,55.77
2022-08-08T18:08:01.233Z,56.23
2022-08-08T18:10:20.445Z,56.37
2022-08-08T18:12:59.107Z,58.02
2022-08-08T18:15:31.174Z,57.38
2022-08-08T18:18:09.011Z,56.97
2022-08-08T18:20:59.149Z,56.84
2022-08-08T18:23:27.086Z,56.08
2022-08-08T18:25:56.479Z,55.41
2022-08-08T18:28:34.842Z,56.29
2022-08-08T18:31:19.813Z,54.73
2022-08-08T18:34:11.817Z,55.83
2022-08-08T18:36:34.698Z,54.57
2022-08-08T18:39:03.373Z,56.02
2022-08-08T18:41:51.158Z,57.21
2022-08-08T18:44:18.008Z,56.15
2022-08-08T18:46:54.104Z,57.91
2022-08-08T18:49:24.483Z,56.68
2022-08-08T18:51:59.925Z,56.63
2022-08-08T18:54:29.945Z,56.74
2022-08-08T18:56:58.167Z,57.20
2022-08-08T18:59:34.394Z,56.16
2022-08-08T19:02:25.311Z,57.02
2022-08-08T19:04:51.852Z,56.81
2022-08-08T19:07:23.132Z,56.86
2022-08-08T19:10:16.111Z,55.67
2022-08-08T19:12:44.641Z,56.44
2022-08-08T19:15:23.566Z,56.51
2022-08-08T19:18:32.950Z,58.02
2022-08-08T19:20:39.563Z,57.12
2022-08-08T19:23:10.523Z,56.89
2022-08-08T19:26:20.529Z,56.50
2022-08-08T19:28:25.297Z,58.94
2022-08-08T19:31:03.322Z,59.14
2022-08-08T19:33:51.860Z,58.63
2022-08-08T19:36:25.339Z,58.37
2022-08-08T19:38:56.072Z,58.89
2022-08-08T19:41:29.753Z,58.41
2022-08-08T19:44:04.033Z,58.45
2022-08-08T19:58:24.279Z,60.76
2022-08-08T20:00:55.424Z,58.81
2022-08-08T20:04:02.019Z,58.57
2022-08-08T20:06:13.759Z,59.13
2022-08-08T20:08:48.015Z,60.12
2022-08-08T20:11:16.285Z,60.39
2022-08-08T20:14:13.035Z,59.87
2022-08-08T20:16:31.056Z,59.37
2022-08-08T20:19:01.606Z,58.47
2022-08-08T20:21:32.090Z,58.19
2022-08-08T20:24:06.273Z,58.30
2022-08-08T20:26:38.468Z,57.66
2022-08-08T20:29:10.953Z,58.73
2022-08-08T20:32:07.061Z,58.51
2022-08-08T20:34:29.277Z,57.52
2022-08-08T20:36:59.775Z,57.09
2022-08-08T20:39:39.688Z,56.67
2022-08-08T20:42:14.969Z,56.32
2022-08-08T20:44:43.175Z,55.38
2022-08-08T20:47:15.705Z,55.07
2022-08-08T20:49:50.958Z,54.23
2022-08-08T20:52:23.334Z,54.07
2022-08-08T20:54:50.799Z,54.91
2022-08-08T20:57:19.175Z,54.93
2022-08-08T20:59:48.678Z,55.01
2022-08-08T21:02:25.324Z,53.44
2022-08-08T21:05:01.149Z,52.13
2022-08-08T21:08:07.868Z,52.11
2022-08-08T21:10:20.835Z,54.42
2022-08-08T21:12:54.260Z,53.22
2022-08-08T21:16:06.173Z,52.51
2022-08-08T21:18:09.374Z,52.57
2022-08-08T21:20:39.220Z,53.34
2022-08-08T21:23:09.167Z,52.02
2022-08-08T21:25:36.937Z,51.65
2022-08-08T21:28:10.231Z,51.79
2022-08-08T21:30:45.358Z,50.90
2022-08-08T21:33:17.090Z,51.61
2022-08-08T21:36:16.992Z,52.28
2022-08-08T21:38:31.665Z,51.48
2022-08-08T21:40:59.100Z,51.67
2022-08-08T21:43:33.009Z,51.50
2022-08-08T21:48:05.443Z,51.29
2022-08-08T21:48:51.641Z,51.17
2022-08-08T21:54:18.486Z,52.07
2022-08-08T21:54:22.800Z,51.36
2022-08-08T21:56:56.143Z,51.05
2022-08-08T21:59:23.342Z,50.97
2022-08-08T22:01:52.009Z,51.67
2022-08-08T22:04:24.729Z,52.55
2022-08-08T22:06:52.796Z,51.58
2022-08-08T22:09:20.033Z,51.67
2022-08-08T22:12:04.935Z,52.73
2022-08-08T22:14:37.120Z,52.30
2022-08-08T22:17:04.557Z,53.20
2022-08-08T22:20:11.066Z,53.18
2022-08-08T22:22:19.230Z,51.82
2022-08-08T22:24:46.431Z,52.60
2022-08-08T22:27:15.177Z,52.20
2022-08-08T22:29:58.672Z,52.57
2022-08-08T22:32:29.980Z,53.39
2022-08-08T22:34:58.680Z,56.00
2022-08-08T22:37:48.737Z,59.89
2022-08-08T22:40:17.112Z,58.94
2022-08-08T22:42:47.227Z,59.47
2022-08-08T22:45:15.414Z,60.92
2022-08-08T22:47:47.395Z,62.54
2022-08-08T22:50:26.369Z,60.81
2022-08-08T22:54:27.753Z,61.53
2022-08-08T22:55:59.350Z,62.40
2022-08-08T22:58:33.097Z,64.22
2022-08-08T23:01:26.719Z,65.53
2022-08-08T23:03:53.648Z,64.19
2022-08-08T23:06:22.616Z,65.05
2022-08-08T23:08:55.700Z,65.28
2022-08-08T23:11:30.792Z,65.39
2022-08-08T23:14:19.078Z,65.07
2022-08-08T23:16:57.610Z,64.25
2022-08-08T23:19:30.822Z,65.51
2022-08-08T23:22:04.398Z,65.83
2022-08-08T23:24:36.571Z,65.52
2022-08-08T23:27:05.669Z,64.73
2022-08-08T23:29:32.945Z,65.82
2022-08-08T23:32:00.150Z,65.44
2022-08-08T23:34:29.334Z,65.74
2022-08-08T23:36:58.497Z,65.66
2022-08-08T23:39:26.515Z,64.70
2022-08-08T23:42:00.880Z,65.15
2022-08-08T23:44:29.162Z,65.75
2022-08-08T23:49:00.918Z,66.77
2022-08-08T23:49:49.611Z,67.18
2022-08-08T23:52:30.851Z,67.39
2022-08-08T23:55:13.858Z,67.53
2022-08-08T23:57:52.243Z,67.20
